sensor_id;sensor_type;location;lat;lon;timestamp;temperature;humidity
56103;DHT22;41970;48.774;9.280;2024-01-30T00:01:56;2.90;99.90
56103;DHT22;41970;48.774;9.280;2024-01-30T00:04:22;3.00;99.90
56103;DHT22;41970;48.774;9.280;2024-01-30T00:06:48;3.00;99.90
56103;DHT22;41970;48.774;9.280;2024-01-30T00:09:13;3.00;99.90
56103;DHT22;41970;48.774;9.280;2024-01-30T00:11:40;3.00;99.90
56103;DHT22;41970;48.774;9.280;2024-01-30T00:14:06;3.00;99.90
56103;DHT22;41970;48.774;9.280;2024-01-30T00:16:32;3.10;99.90
56103;DHT22;41970;48.774;9.280;2024-01-30T00:18:58;3.10;99.90
56103;DHT22;41970;48.774;9.280;2024-01-30T00:21:23;3.10;99.90
56103;DHT22;41970;48.774;9.280;2024-01-30T00:23:49;3.10;99.90
56103;DHT22;41970;48.774;9.280;2024-01-30T00:26:15;3.00;99.90
56103;DHT22;41970;48.774;9.280;2024-01-30T00:28:42;3.00;99.90
56103;DHT22;41970;48.774;9.280;2024-01-30T00:31:08;2.90;99.90
56103;DHT22;41970;48.774;9.280;2024-01-30T00:33:41;2.80;99.90
56103;DHT22;41970;48.774;9.280;2024-01-30T00:36:08;2.90;99.90
56103;DHT22;41970;48.774;9.280;2024-01-30T00:38:33;2.90;99.90
56103;DHT22;41970;48.774;9.280;2024-01-30T00:40:59;3.00;99.90
56103;DHT22;41970;48.774;9.280;2024-01-30T00:43:25;3.00;99.90
56103;DHT22;41970;48.774;9.280;2024-01-30T00:45:51;3.00;99.90
56103;DHT22;41970;48.774;9.280;2024-01-30T00:48:20;3.00;99.90
56103;DHT22;41970;48.774;9.280;2024-01-30T00:50:46;2.90;99.90
56103;DHT22;41970;48.774;9.280;2024-01-30T00:53:12;2.90;99.90
56103;DHT22;41970;48.774;9.280;2024-01-30T00:55:38;2.90;99.90
56103;DHT22;41970;48.774;9.280;2024-01-30T00:58:04;2.90;99.90
56103;DHT22;41970;48.774;9.280;2024-01-30T01:00:30;2.90;99.90
56103;DHT22;41970;48.774;9.280;2024-01-30T01:02:58;2.90;99.90
56103;DHT22;41970;48.774;9.280;2024-01-30T01:05:24;2.90;99.90
56103;DHT22;41970;48.774;9.280;2024-01-30T01:07:50;2.80;99.90
56103;DHT22;41970;48.774;9.280;2024-01-30T01:10:16;2.80;99.90
56103;DHT22;41970;48.774;9.280;2024-01-30T01:12:43;2.80;99.90
56103;DHT22;41970;48.774;9.280;2024-01-30T01:15:09;2.80;99.90
56103;DHT22;41970;48.774;9.280;2024-01-30T01:17:36;2.80;99.90
56103;DHT22;41970;48.774;9.280;2024-01-30T01:20:02;2.80;99.90
56103;DHT22;41970;48.774;9.280;2024-01-30T01:22:29;2.80;99.90
56103;DHT22;41970;48.774;9.280;2024-01-30T01:24:55;2.80;99.90
56103;DHT22;41970;48.774;9.280;2024-01-30T01:27:20;2.80;99.90
56103;DHT22;41970;48.774;9.280;2024-01-30T01:29:46;2.90;99.90
56103;DHT22;41970;48.774;9.280;2024-01-30T01:32:12;2.90;99.90
56103;DHT22;41970;48.774;9.280;2024-01-30T01:34:38;2.90;99.90
56103;DHT22;41970;48.774;9.280;2024-01-30T01:37:04;2.80;99.90
56103;DHT22;41970;48.774;9.280;2024-01-30T01:39:30;2.80;99.90
56103;DHT22;41970;48.774;9.280;2024-01-30T01:41:56;2.90;99.90
56103;DHT22;41970;48.774;9.280;2024-01-30T01:44:21;2.80;99.90
56103;DHT22;41970;48.774;9.280;2024-01-30T01:46:47;2.90;99.90
56103;DHT22;41970;48.774;9.280;2024-01-30T01:49:14;3.10;99.90
56103;DHT22;41970;48.774;9.280;2024-01-30T01:51:41;3.10;99.90
56103;DHT22;41970;48.774;9.280;2024-01-30T01:54:08;3.00;99.90
56103;DHT22;41970;48.774;9.280;2024-01-30T01:56:34;3.00;99.90
56103;DHT22;41970;48.774;9.280;2024-01-30T01:59:05;3.10;99.90
56103;DHT22;41970;48.774;9.280;2024-01-30T02:01:33;2.90;99.90
56103;DHT22;41970;48.774;9.280;2024-01-30T02:04:00;3.00;99.90
56103;DHT22;41970;48.774;9.280;2024-01-30T02:06:26;2.90;99.90
56103;DHT22;41970;48.774;9.280;2024-01-30T02:08:53;2.80;99.90
56103;DHT22;41970;48.774;9.280;2024-01-30T02:11:20;2.70;99.90
56103;DHT22;41970;48.774;9.280;2024-01-30T02:13:48;2.80;99.90
56103;DHT22;41970;48.774;9.280;2024-01-30T02:16:14;2.80;99.90
56103;DHT22;41970;48.774;9.280;2024-01-30T02:18:40;2.70;99.90
56103;DHT22;41970;48.774;9.280;2024-01-30T02:21:13;2.60;99.90
56103;DHT22;41970;48.774;9.280;2024-01-30T02:23:40;2.60;99.90
56103;DHT22;41970;48.774;9.280;2024-01-30T02:26:06;2.60;99.90
56103;DHT22;41970;48.774;9.280;2024-01-30T02:28:32;2.60;99.90
56103;DHT22;41970;48.774;9.280;2024-01-30T02:30:58;2.70;99.90
56103;DHT22;41970;48.774;9.280;2024-01-30T02:33:24;2.60;99.90
56103;DHT22;41970;48.774;9.280;2024-01-30T02:35:50;2.50;99.90
56103;DHT22;41970;48.774;9.280;2024-01-30T02:38:16;2.50;99.90
56103;DHT22;41970;48.774;9.280;2024-01-30T02:40:42;2.50;99.90
56103;DHT22;41970;48.774;9.280;2024-01-30T02:43:08;2.60;99.90
56103;DHT22;41970;48.774;9.280;2024-01-30T02:45:34;2.60;99.90
56103;DHT22;41970;48.774;9.280;2024-01-30T02:47:59;2.50;99.90
56103;DHT22;41970;48.774;9.280;2024-01-30T02:50:25;2.50;99.90
56103;DHT22;41970;48.774;9.280;2024-01-30T02:52:51;2.60;99.90
56103;DHT22;41970;48.774;9.280;2024-01-30T02:55:17;2.50;99.90
56103;DHT22;41970;48.774;9.280;2024-01-30T02:57:46;2.40;99.90
56103;DHT22;41970;48.774;9.280;2024-01-30T03:00:12;2.40;99.90
56103;DHT22;41970;48.774;9.280;2024-01-30T03:02:38;2.50;99.90
56103;DHT22;41970;48.774;9.280;2024-01-30T03:05:05;2.40;99.90
56103;DHT22;41970;48.774;9.280;2024-01-30T03:07:31;2.50;99.90
56103;DHT22;41970;48.774;9.280;2024-01-30T03:09:57;2.40;99.90
56103;DHT22;41970;48.774;9.280;2024-01-30T03:12:23;2.30;99.90
56103;DHT22;41970;48.774;9.280;2024-01-30T03:14:49;2.20;99.90
56103;DHT22;41970;48.774;9.280;2024-01-30T03:17:15;2.30;99.90
56103;DHT22;41970;48.774;9.280;2024-01-30T03:19:41;2.30;99.90
56103;DHT22;41970;48.774;9.280;2024-01-30T03:22:07;2.30;99.90
56103;DHT22;41970;48.774;9.280;2024-01-30T03:24:33;2.30;99.90
56103;DHT22;41970;48.774;9.280;2024-01-30T03:26:58;2.30;99.90
56103;DHT22;41970;48.774;9.280;2024-01-30T03:29:24;2.30;99.90
56103;DHT22;41970;48.774;9.280;2024-01-30T03:31:50;2.30;99.90
56103;DHT22;41970;48.774;9.280;2024-01-30T03:34:16;2.20;99.90
56103;DHT22;41970;48.774;9.280;2024-01-30T03:36:42;2.10;99.90
56103;DHT22;41970;48.774;9.280;2024-01-30T03:39:08;2.10;99.90
56103;DHT22;41970;48.774;9.280;2024-01-30T03:41:34;2.10;99.90
56103;DHT22;41970;48.774;9.280;2024-01-30T03:43:59;2.10;99.90
56103;DHT22;41970;48.774;9.280;2024-01-30T03:46:25;2.10;99.90
56103;DHT22;41970;48.774;9.280;2024-01-30T03:48:51;2.00;99.90
56103;DHT22;41970;48.774;9.280;2024-01-30T03:51:17;1.90;99.90
56103;DHT22;41970;48.774;9.280;2024-01-30T03:53:43;1.90;99.90
56103;DHT22;41970;48.774;9.280;2024-01-30T03:56:09;1.90;99.90
56103;DHT22;41970;48.774;9.280;2024-01-30T03:58:35;1.90;99.90
56103;DHT22;41970;48.774;9.280;2024-01-30T04:01:01;2.00;99.90
56103;DHT22;41970;48.774;9.280;2024-01-30T04:03:27;2.00;99.90
56103;DHT22;41970;48.774;9.280;2024-01-30T04:05:53;2.00;99.90
56103;DHT22;41970;48.774;9.280;2024-01-30T04:08:19;2.00;99.90
56103;DHT22;41970;48.774;9.280;2024-01-30T04:10:46;2.00;99.90
56103;DHT22;41970;48.774;9.280;2024-01-30T04:13:13;2.00;99.90
56103;DHT22;41970;48.774;9.280;2024-01-30T04:15:39;2.00;99.90
56103;DHT22;41970;48.774;9.280;2024-01-30T04:18:05;2.00;99.90
56103;DHT22;41970;48.774;9.280;2024-01-30T04:20:31;2.00;99.90
56103;DHT22;41970;48.774;9.280;2024-01-30T04:22:57;2.00;99.90
56103;DHT22;41970;48.774;9.280;2024-01-30T04:25:23;2.00;99.90
56103;DHT22;41970;48.774;9.280;2024-01-30T04:27:49;2.00;99.90
56103;DHT22;41970;48.774;9.280;2024-01-30T04:30:15;2.00;99.90
56103;DHT22;41970;48.774;9.280;2024-01-30T04:32:41;1.90;99.90
56103;DHT22;41970;48.774;9.280;2024-01-30T04:35:07;1.90;99.90
56103;DHT22;41970;48.774;9.280;2024-01-30T04:37:33;1.90;99.90
56103;DHT22;41970;48.774;9.280;2024-01-30T04:39:59;1.90;99.90
56103;DHT22;41970;48.774;9.280;2024-01-30T04:42:24;1.90;99.90
56103;DHT22;41970;48.774;9.280;2024-01-30T04:44:50;1.90;99.90
56103;DHT22;41970;48.774;9.280;2024-01-30T04:47:16;2.00;99.90
56103;DHT22;41970;48.774;9.280;2024-01-30T04:49:42;2.00;99.90
56103;DHT22;41970;48.774;9.280;2024-01-30T04:52:09;1.90;99.90
56103;DHT22;41970;48.774;9.280;2024-01-30T04:54:35;1.90;99.90
56103;DHT22;41970;48.774;9.280;2024-01-30T04:57:02;1.90;99.90
56103;DHT22;41970;48.774;9.280;2024-01-30T04:59:28;1.80;99.90
56103;DHT22;41970;48.774;9.280;2024-01-30T05:01:54;1.80;99.90
56103;DHT22;41970;48.774;9.280;2024-01-30T05:04:20;1.80;99.90
56103;DHT22;41970;48.774;9.280;2024-01-30T05:06:47;1.90;99.90
56103;DHT22;41970;48.774;9.280;2024-01-30T05:09:13;1.90;99.90
56103;DHT22;41970;48.774;9.280;2024-01-30T05:11:40;1.90;99.90
56103;DHT22;41970;48.774;9.280;2024-01-30T05:14:06;1.80;99.90
56103;DHT22;41970;48.774;9.280;2024-01-30T05:16:32;1.80;99.90
56103;DHT22;41970;48.774;9.280;2024-01-30T05:18:59;1.80;99.90
56103;DHT22;41970;48.774;9.280;2024-01-30T05:21:25;1.80;99.90
56103;DHT22;41970;48.774;9.280;2024-01-30T05:23:50;1.80;99.90
56103;DHT22;41970;48.774;9.280;2024-01-30T05:26:16;1.80;99.90
56103;DHT22;41970;48.774;9.280;2024-01-30T05:28:42;1.80;99.90
56103;DHT22;41970;48.774;9.280;2024-01-30T05:31:10;1.80;99.90
56103;DHT22;41970;48.774;9.280;2024-01-30T05:33:36;1.80;99.90
56103;DHT22;41970;48.774;9.280;2024-01-30T05:36:02;1.90;99.90
56103;DHT22;41970;48.774;9.280;2024-01-30T05:38:28;1.80;99.90
56103;DHT22;41970;48.774;9.280;2024-01-30T05:40:54;1.80;99.90
56103;DHT22;41970;48.774;9.280;2024-01-30T05:43:19;1.70;99.90
56103;DHT22;41970;48.774;9.280;2024-01-30T05:45:45;1.80;99.90
56103;DHT22;41970;48.774;9.280;2024-01-30T05:48:11;1.80;99.90
56103;DHT22;41970;48.774;9.280;2024-01-30T05:50:37;1.80;99.90
56103;DHT22;41970;48.774;9.280;2024-01-30T05:53:03;1.80;99.90
56103;DHT22;41970;48.774;9.280;2024-01-30T05:55:29;1.70;99.90
56103;DHT22;41970;48.774;9.280;2024-01-30T05:57:54;1.70;99.90
56103;DHT22;41970;48.774;9.280;2024-01-30T06:00:21;1.70;99.90
56103;DHT22;41970;48.774;9.280;2024-01-30T06:02:46;1.70;99.90
56103;DHT22;41970;48.774;9.280;2024-01-30T06:05:12;1.70;99.90
56103;DHT22;41970;48.774;9.280;2024-01-30T06:07:38;1.70;99.90
56103;DHT22;41970;48.774;9.280;2024-01-30T06:10:04;1.70;99.90
56103;DHT22;41970;48.774;9.280;2024-01-30T06:12:30;1.70;99.90
56103;DHT22;41970;48.774;9.280;2024-01-30T06:14:56;1.70;99.90
56103;DHT22;41970;48.774;9.280;2024-01-30T06:17:23;1.70;99.90
56103;DHT22;41970;48.774;9.280;2024-01-30T06:19:49;1.70;99.90
56103;DHT22;41970;48.774;9.280;2024-01-30T06:22:16;1.60;99.90
56103;DHT22;41970;48.774;9.280;2024-01-30T06:24:42;1.70;99.90
56103;DHT22;41970;48.774;9.280;2024-01-30T06:27:10;1.60;99.90
56103;DHT22;41970;48.774;9.280;2024-01-30T06:29:36;1.60;99.90
56103;DHT22;41970;48.774;9.280;2024-01-30T06:32:02;1.70;99.90
56103;DHT22;41970;48.774;9.280;2024-01-30T06:34:28;1.80;99.90
56103;DHT22;41970;48.774;9.280;2024-01-30T06:36:54;1.80;99.90
56103;DHT22;41970;48.774;9.280;2024-01-30T06:39:19;1.70;99.90
56103;DHT22;41970;48.774;9.280;2024-01-30T06:41:45;1.70;99.90
56103;DHT22;41970;48.774;9.280;2024-01-30T06:44:12;1.70;99.90
56103;DHT22;41970;48.774;9.280;2024-01-30T06:46:38;1.70;99.90
56103;DHT22;41970;48.774;9.280;2024-01-30T06:49:04;1.70;99.90
56103;DHT22;41970;48.774;9.280;2024-01-30T06:51:31;1.70;99.90
56103;DHT22;41970;48.774;9.280;2024-01-30T06:53:56;1.80;99.90
56103;DHT22;41970;48.774;9.280;2024-01-30T06:56:22;1.80;99.90
56103;DHT22;41970;48.774;9.280;2024-01-30T06:58:49;1.80;99.90
56103;DHT22;41970;48.774;9.280;2024-01-30T07:01:15;1.80;99.90
56103;DHT22;41970;48.774;9.280;2024-01-30T07:03:41;1.90;99.90
56103;DHT22;41970;48.774;9.280;2024-01-30T07:06:08;1.90;99.90
56103;DHT22;41970;48.774;9.280;2024-01-30T07:08:34;1.80;99.90
56103;DHT22;41970;48.774;9.280;2024-01-30T07:10:59;1.80;99.90
56103;DHT22;41970;48.774;9.280;2024-01-30T07:13:25;1.80;99.90
56103;DHT22;41970;48.774;9.280;2024-01-30T07:15:51;1.80;99.90
56103;DHT22;41970;48.774;9.280;2024-01-30T07:18:17;1.80;99.90
56103;DHT22;41970;48.774;9.280;2024-01-30T07:20:43;1.80;99.90
56103;DHT22;41970;48.774;9.280;2024-01-30T07:23:15;1.90;99.90
56103;DHT22;41970;48.774;9.280;2024-01-30T07:25:46;1.80;99.90
56103;DHT22;41970;48.774;9.280;2024-01-30T07:28:14;1.90;99.90
56103;DHT22;41970;48.774;9.280;2024-01-30T07:30:42;1.90;99.90
56103;DHT22;41970;48.774;9.280;2024-01-30T07:33:09;1.80;99.90
56103;DHT22;41970;48.774;9.280;2024-01-30T07:35:35;1.80;99.90
56103;DHT22;41970;48.774;9.280;2024-01-30T07:38:01;1.90;99.90
56103;DHT22;41970;48.774;9.280;2024-01-30T07:40:27;1.90;99.90
56103;DHT22;41970;48.774;9.280;2024-01-30T07:42:54;1.90;99.90
56103;DHT22;41970;48.774;9.280;2024-01-30T07:45:20;2.00;99.90
56103;DHT22;41970;48.774;9.280;2024-01-30T07:47:51;2.00;99.90
56103;DHT22;41970;48.774;9.280;2024-01-30T07:50:17;2.00;99.90
56103;DHT22;41970;48.774;9.280;2024-01-30T07:52:44;2.00;99.90
56103;DHT22;41970;48.774;9.280;2024-01-30T07:55:10;1.90;99.90
56103;DHT22;41970;48.774;9.280;2024-01-30T07:57:38;2.00;99.90
56103;DHT22;41970;48.774;9.280;2024-01-30T08:00:05;2.00;99.90
56103;DHT22;41970;48.774;9.280;2024-01-30T08:02:32;2.10;99.90
56103;DHT22;41970;48.774;9.280;2024-01-30T08:04:58;2.10;99.90
56103;DHT22;41970;48.774;9.280;2024-01-30T08:07:24;2.30;99.90
56103;DHT22;41970;48.774;9.280;2024-01-30T08:09:50;2.30;99.90
56103;DHT22;41970;48.774;9.280;2024-01-30T08:12:16;2.30;99.90
56103;DHT22;41970;48.774;9.280;2024-01-30T08:14:42;2.40;99.90
56103;DHT22;41970;48.774;9.280;2024-01-30T08:17:08;2.40;99.90
56103;DHT22;41970;48.774;9.280;2024-01-30T08:19:34;2.50;99.90
56103;DHT22;41970;48.774;9.280;2024-01-30T08:22:00;2.80;99.90
56103;DHT22;41970;48.774;9.280;2024-01-30T08:24:25;3.10;99.90
56103;DHT22;41970;48.774;9.280;2024-01-30T08:26:51;3.40;99.90
56103;DHT22;41970;48.774;9.280;2024-01-30T08:29:17;3.50;99.90
56103;DHT22;41970;48.774;9.280;2024-01-30T08:31:43;3.70;99.90
56103;DHT22;41970;48.774;9.280;2024-01-30T08:34:09;3.90;99.90
56103;DHT22;41970;48.774;9.280;2024-01-30T08:36:36;4.20;99.90
56103;DHT22;41970;48.774;9.280;2024-01-30T08:39:02;4.40;99.90
56103;DHT22;41970;48.774;9.280;2024-01-30T08:41:28;5.20;99.90
56103;DHT22;41970;48.774;9.280;2024-01-30T08:43:54;5.90;99.90
56103;DHT22;41970;48.774;9.280;2024-01-30T08:46:20;6.30;99.90
56103;DHT22;41970;48.774;9.280;2024-01-30T08:48:46;6.90;99.90
56103;DHT22;41970;48.774;9.280;2024-01-30T08:51:13;7.60;99.90
56103;DHT22;41970;48.774;9.280;2024-01-30T08:53:40;8.00;99.90
56103;DHT22;41970;48.774;9.280;2024-01-30T08:56:07;8.10;99.90
56103;DHT22;41970;48.774;9.280;2024-01-30T08:58:33;8.20;99.90
56103;DHT22;41970;48.774;9.280;2024-01-30T09:00:59;8.30;99.90
56103;DHT22;41970;48.774;9.280;2024-01-30T09:03:24;8.30;99.90
56103;DHT22;41970;48.774;9.280;2024-01-30T09:05:50;8.20;99.90
56103;DHT22;41970;48.774;9.280;2024-01-30T09:08:16;8.20;99.90
56103;DHT22;41970;48.774;9.280;2024-01-30T09:10:42;8.00;99.90
56103;DHT22;41970;48.774;9.280;2024-01-30T09:13:08;8.00;99.90
56103;DHT22;41970;48.774;9.280;2024-01-30T09:15:34;7.90;99.90
56103;DHT22;41970;48.774;9.280;2024-01-30T09:18:01;7.80;99.90
56103;DHT22;41970;48.774;9.280;2024-01-30T09:20:27;7.80;99.90
56103;DHT22;41970;48.774;9.280;2024-01-30T09:22:52;7.90;99.90
56103;DHT22;41970;48.774;9.280;2024-01-30T09:25:18;7.70;99.90
56103;DHT22;41970;48.774;9.280;2024-01-30T09:27:44;7.90;99.90
56103;DHT22;41970;48.774;9.280;2024-01-30T09:30:10;8.00;99.90
56103;DHT22;41970;48.774;9.280;2024-01-30T09:32:36;8.30;99.90
56103;DHT22;41970;48.774;9.280;2024-01-30T09:35:02;8.40;99.90
56103;DHT22;41970;48.774;9.280;2024-01-30T09:37:28;8.50;99.90
56103;DHT22;41970;48.774;9.280;2024-01-30T09:39:54;8.70;99.90
56103;DHT22;41970;48.774;9.280;2024-01-30T09:44:51;9.30;99.90
56103;DHT22;41970;48.774;9.280;2024-01-30T09:47:20;9.50;99.90
56103;DHT22;41970;48.774;9.280;2024-01-30T09:49:46;9.80;99.90
56103;DHT22;41970;48.774;9.280;2024-01-30T09:52:13;9.90;99.90
56103;DHT22;41970;48.774;9.280;2024-01-30T09:54:40;10.10;99.90
56103;DHT22;41970;48.774;9.280;2024-01-30T09:57:07;10.10;99.90
56103;DHT22;41970;48.774;9.280;2024-01-30T09:59:33;10.00;99.90
56103;DHT22;41970;48.774;9.280;2024-01-30T10:01:59;9.80;99.90
56103;DHT22;41970;48.774;9.280;2024-01-30T10:04:25;9.60;99.90
56103;DHT22;41970;48.774;9.280;2024-01-30T10:06:51;9.70;99.90
56103;DHT22;41970;48.774;9.280;2024-01-30T10:09:17;9.60;99.90
56103;DHT22;41970;48.774;9.280;2024-01-30T10:11:42;9.50;99.90
56103;DHT22;41970;48.774;9.280;2024-01-30T10:14:09;9.40;99.90
56103;DHT22;41970;48.774;9.280;2024-01-30T10:16:35;9.30;99.90
56103;DHT22;41970;48.774;9.280;2024-01-30T10:19:01;9.20;99.90
56103;DHT22;41970;48.774;9.280;2024-01-30T10:21:29;9.10;99.90
56103;DHT22;41970;48.774;9.280;2024-01-30T10:23:55;8.90;99.90
56103;DHT22;41970;48.774;9.280;2024-01-30T10:26:21;8.80;99.90
56103;DHT22;41970;48.774;9.280;2024-01-30T10:28:48;8.80;99.90
56103;DHT22;41970;48.774;9.280;2024-01-30T10:31:18;9.00;99.90
56103;DHT22;41970;48.774;9.280;2024-01-30T10:33:44;9.20;99.90
56103;DHT22;41970;48.774;9.280;2024-01-30T10:36:13;9.30;99.90
56103;DHT22;41970;48.774;9.280;2024-01-30T10:38:42;9.30;99.90
56103;DHT22;41970;48.774;9.280;2024-01-30T10:41:08;9.40;99.90
56103;DHT22;41970;48.774;9.280;2024-01-30T10:43:41;9.40;99.90
56103;DHT22;41970;48.774;9.280;2024-01-30T10:46:29;9.40;99.90
56103;DHT22;41970;48.774;9.280;2024-01-30T10:48:59;9.40;99.90
56103;DHT22;41970;48.774;9.280;2024-01-30T10:51:27;9.50;99.90
56103;DHT22;41970;48.774;9.280;2024-01-30T10:53:53;9.50;99.90
56103;DHT22;41970;48.774;9.280;2024-01-30T10:56:22;9.50;99.90
56103;DHT22;41970;48.774;9.280;2024-01-30T10:58:50;9.40;99.90
56103;DHT22;41970;48.774;9.280;2024-01-30T11:01:18;9.40;99.90
56103;DHT22;41970;48.774;9.280;2024-01-30T11:03:45;9.40;99.90
56103;DHT22;41970;48.774;9.280;2024-01-30T11:06:11;9.50;99.90
56103;DHT22;41970;48.774;9.280;2024-01-30T11:08:44;9.50;99.90
56103;DHT22;41970;48.774;9.280;2024-01-30T11:11:10;9.50;99.90
56103;DHT22;41970;48.774;9.280;2024-01-30T11:13:36;9.50;99.90
56103;DHT22;41970;48.774;9.280;2024-01-30T11:16:05;9.50;99.90
56103;DHT22;41970;48.774;9.280;2024-01-30T11:18:32;9.50;99.90
56103;DHT22;41970;48.774;9.280;2024-01-30T11:20:59;9.50;99.90
56103;DHT22;41970;48.774;9.280;2024-01-30T11:23:27;9.50;99.90
56103;DHT22;41970;48.774;9.280;2024-01-30T11:25:54;9.50;99.90
56103;DHT22;41970;48.774;9.280;2024-01-30T11:28:23;9.50;99.90
56103;DHT22;41970;48.774;9.280;2024-01-30T11:30:49;9.50;99.90
56103;DHT22;41970;48.774;9.280;2024-01-30T11:33:28;9.50;99.90
56103;DHT22;41970;48.774;9.280;2024-01-30T11:35:57;9.60;99.90
56103;DHT22;41970;48.774;9.280;2024-01-30T11:38:26;9.70;99.90
56103;DHT22;41970;48.774;9.280;2024-01-30T11:40:55;9.70;99.90
56103;DHT22;41970;48.774;9.280;2024-01-30T11:43:22;9.70;99.90
56103;DHT22;41970;48.774;9.280;2024-01-30T11:45:48;9.80;99.90
56103;DHT22;41970;48.774;9.280;2024-01-30T11:48:14;9.80;99.90
56103;DHT22;41970;48.774;9.280;2024-01-30T11:50:40;9.80;99.90
56103;DHT22;41970;48.774;9.280;2024-01-30T11:53:06;9.90;99.90
56103;DHT22;41970;48.774;9.280;2024-01-30T11:55:33;9.90;99.90
56103;DHT22;41970;48.774;9.280;2024-01-30T11:58:02;9.90;99.90
56103;DHT22;41970;48.774;9.280;2024-01-30T12:00:27;10.00;99.90
56103;DHT22;41970;48.774;9.280;2024-01-30T12:02:55;10.00;99.90
56103;DHT22;41970;48.774;9.280;2024-01-30T12:05:27;10.00;99.90
56103;DHT22;41970;48.774;9.280;2024-01-30T12:07:54;10.00;99.90
56103;DHT22;41970;48.774;9.280;2024-01-30T12:10:21;10.10;99.90
56103;DHT22;41970;48.774;9.280;2024-01-30T12:12:48;10.10;99.90
56103;DHT22;41970;48.774;9.280;2024-01-30T12:15:14;10.10;99.90
56103;DHT22;41970;48.774;9.280;2024-01-30T12:17:41;10.20;99.90
56103;DHT22;41970;48.774;9.280;2024-01-30T12:20:12;10.20;99.90
56103;DHT22;41970;48.774;9.280;2024-01-30T12:22:45;10.20;99.90
56103;DHT22;41970;48.774;9.280;2024-01-30T12:25:12;10.30;99.90
56103;DHT22;41970;48.774;9.280;2024-01-30T12:27:39;10.30;99.90
56103;DHT22;41970;48.774;9.280;2024-01-30T12:30:07;10.30;99.90
56103;DHT22;41970;48.774;9.280;2024-01-30T12:32:35;10.30;99.90
56103;DHT22;41970;48.774;9.280;2024-01-30T12:35:02;10.30;99.90
56103;DHT22;41970;48.774;9.280;2024-01-30T12:37:28;10.30;99.90
56103;DHT22;41970;48.774;9.280;2024-01-30T12:39:55;10.40;99.90
56103;DHT22;41970;48.774;9.280;2024-01-30T12:42:21;10.40;99.90
56103;DHT22;41970;48.774;9.280;2024-01-30T12:44:48;10.40;99.90
56103;DHT22;41970;48.774;9.280;2024-01-30T12:47:14;10.40;99.90
56103;DHT22;41970;48.774;9.280;2024-01-30T12:49:44;10.50;99.90
56103;DHT22;41970;48.774;9.280;2024-01-30T12:52:11;10.50;99.90
56103;DHT22;41970;48.774;9.280;2024-01-30T12:54:37;10.60;99.90
56103;DHT22;41970;48.774;9.280;2024-01-30T12:57:05;10.60;99.90
56103;DHT22;41970;48.774;9.280;2024-01-30T12:59:31;10.60;99.90
56103;DHT22;41970;48.774;9.280;2024-01-30T13:01:56;10.70;99.90
56103;DHT22;41970;48.774;9.280;2024-01-30T13:04:23;10.70;99.90
56103;DHT22;41970;48.774;9.280;2024-01-30T13:06:49;10.70;99.90
56103;DHT22;41970;48.774;9.280;2024-01-30T13:09:15;10.70;99.60
56103;DHT22;41970;48.774;9.280;2024-01-30T13:11:41;10.80;98.70
56103;DHT22;41970;48.774;9.280;2024-01-30T13:14:07;10.90;99.50
56103;DHT22;41970;48.774;9.280;2024-01-30T13:16:33;10.90;99.90
56103;DHT22;41970;48.774;9.280;2024-01-30T13:18:59;10.90;99.90
56103;DHT22;41970;48.774;9.280;2024-01-30T13:21:26;11.00;99.90
56103;DHT22;41970;48.774;9.280;2024-01-30T13:23:52;11.00;99.90
56103;DHT22;41970;48.774;9.280;2024-01-30T13:26:20;11.00;99.90
56103;DHT22;41970;48.774;9.280;2024-01-30T13:28:46;11.00;99.90
56103;DHT22;41970;48.774;9.280;2024-01-30T13:31:15;11.00;99.90
56103;DHT22;41970;48.774;9.280;2024-01-30T13:33:41;11.10;99.90
56103;DHT22;41970;48.774;9.280;2024-01-30T13:36:11;11.10;99.90
56103;DHT22;41970;48.774;9.280;2024-01-30T13:38:38;11.20;99.90
56103;DHT22;41970;48.774;9.280;2024-01-30T13:41:04;11.20;99.90
56103;DHT22;41970;48.774;9.280;2024-01-30T13:43:30;11.30;99.90
56103;DHT22;41970;48.774;9.280;2024-01-30T13:45:56;11.30;99.80
56103;DHT22;41970;48.774;9.280;2024-01-30T13:48:22;11.40;99.90
56103;DHT22;41970;48.774;9.280;2024-01-30T13:50:48;11.40;99.90
56103;DHT22;41970;48.774;9.280;2024-01-30T13:53:14;11.40;99.90
56103;DHT22;41970;48.774;9.280;2024-01-30T13:55:40;11.40;99.90
56103;DHT22;41970;48.774;9.280;2024-01-30T13:58:06;11.40;99.90
56103;DHT22;41970;48.774;9.280;2024-01-30T14:00:33;11.50;99.90
56103;DHT22;41970;48.774;9.280;2024-01-30T14:02:59;11.50;99.90
56103;DHT22;41970;48.774;9.280;2024-01-30T14:05:26;11.50;99.90
56103;DHT22;41970;48.774;9.280;2024-01-30T14:07:54;11.40;99.90
56103;DHT22;41970;48.774;9.280;2024-01-30T14:10:20;11.40;99.70
56103;DHT22;41970;48.774;9.280;2024-01-30T14:12:46;11.20;99.40
56103;DHT22;41970;48.774;9.280;2024-01-30T14:15:14;11.20;99.20
56103;DHT22;41970;48.774;9.280;2024-01-30T14:17:48;11.20;99.30
56103;DHT22;41970;48.774;9.280;2024-01-30T14:20:15;11.20;99.50
56103;DHT22;41970;48.774;9.280;2024-01-30T14:22:44;11.30;99.80
56103;DHT22;41970;48.774;9.280;2024-01-30T14:25:10;11.30;99.90
56103;DHT22;41970;48.774;9.280;2024-01-30T14:27:36;11.30;99.90
56103;DHT22;41970;48.774;9.280;2024-01-30T14:30:02;11.30;99.90
56103;DHT22;41970;48.774;9.280;2024-01-30T14:32:31;11.30;99.90
56103;DHT22;41970;48.774;9.280;2024-01-30T14:34:57;11.30;99.00
56103;DHT22;41970;48.774;9.280;2024-01-30T14:37:23;11.30;99.90
56103;DHT22;41970;48.774;9.280;2024-01-30T14:39:49;11.30;99.90
56103;DHT22;41970;48.774;9.280;2024-01-30T14:42:15;11.30;99.90
56103;DHT22;41970;48.774;9.280;2024-01-30T14:44:41;11.30;99.80
56103;DHT22;41970;48.774;9.280;2024-01-30T14:47:08;11.30;99.90
56103;DHT22;41970;48.774;9.280;2024-01-30T14:49:34;11.30;99.90
56103;DHT22;41970;48.774;9.280;2024-01-30T14:51:59;11.30;99.90
56103;DHT22;41970;48.774;9.280;2024-01-30T14:54:26;11.30;99.90
56103;DHT22;41970;48.774;9.280;2024-01-30T14:56:53;11.30;99.70
56103;DHT22;41970;48.774;9.280;2024-01-30T14:59:19;11.30;99.90
56103;DHT22;41970;48.774;9.280;2024-01-30T15:01:45;11.30;99.90
56103;DHT22;41970;48.774;9.280;2024-01-30T15:04:11;11.30;99.80
56103;DHT22;41970;48.774;9.280;2024-01-30T15:06:37;11.30;99.70
56103;DHT22;41970;48.774;9.280;2024-01-30T15:09:03;11.30;99.30
56103;DHT22;41970;48.774;9.280;2024-01-30T15:11:28;11.30;99.50
56103;DHT22;41970;48.774;9.280;2024-01-30T15:13:54;11.30;99.90
56103;DHT22;41970;48.774;9.280;2024-01-30T15:16:20;11.20;99.90
56103;DHT22;41970;48.774;9.280;2024-01-30T15:18:46;11.20;99.90
56103;DHT22;41970;48.774;9.280;2024-01-30T15:21:12;11.20;99.90
56103;DHT22;41970;48.774;9.280;2024-01-30T15:23:37;11.20;99.90
56103;DHT22;41970;48.774;9.280;2024-01-30T15:26:03;11.20;99.90
56103;DHT22;41970;48.774;9.280;2024-01-30T15:28:39;11.00;99.90
56103;DHT22;41970;48.774;9.280;2024-01-30T15:31:06;10.90;99.90
56103;DHT22;41970;48.774;9.280;2024-01-30T15:33:32;10.90;99.90
56103;DHT22;41970;48.774;9.280;2024-01-30T15:36:02;10.80;99.90
56103;DHT22;41970;48.774;9.280;2024-01-30T15:38:29;10.60;99.90
56103;DHT22;41970;48.774;9.280;2024-01-30T15:40:55;10.60;99.90